Saint-Fulgence, Canada
Current Conditions -  °F | °C
As of 3:00 AM on Thursday 29 Jan 2015 (Local Time) from CYBG Reporting Station
Broken Clouds Broken Clouds  
Wind Chill: -6°   Ceiling: 24000
Heat Index: -6°   Visibility: 25mi
Dew Point: -13°   Wind: 0mph
Humidity: 71%   Direction: NA
Pressure: 30.21"   Gusts: NA
Location:  48.45°N, 70.9°W
Report Text: CYBG 290800Z 00000KT 25SM FEW020 SCT040 BKN240 M21/M25 A3021 RMK SC2SC2CI1 SLP246
Loading
Personal Weather Stations






























Interactive Weather Map New forecast layout! Learn more

10-Day Weather Forecast

Advertisements
Track Severe Weather on mobile